LGL4596 EGLC-ELLX
Flight info
| Callsign | LGL4596 |
|---|---|
| Flight time | 1h 0m |
| Altitude | 23000 |
| Route | SOQQA M87 UMTUM L9 KONAN UL607 REMBA |
| Aircraft | DH8D/M-SDE2E3FGRY/H |
Departure
| Time | 2026-05-03 20:41 |
|---|---|
| Airport | London City Airport (EGLC) |
Arrival
| Time | 2026-05-03 21:41 |
|---|---|
| Airport | Luxembourg-Findel International Airport (ELLX) |
| Time | Latitude | Longitude | Altitude | Speed | Heading |
|---|---|---|---|---|---|
| 2026-05-03 20:18 | 51.50438 | 0.04762 | 30 ft | 0 kts | 319° |
| 2026-05-03 20:33 | 51.50453 | 0.04757 | 30 ft | 5 kts | 20° |
| 2026-05-03 20:33 | 51.50467 | 0.04844 | 30 ft | 10 kts | 92° |
| 2026-05-03 20:33 | 51.50464 | 0.04950 | 30 ft | 8 kts | 93° |
| 2026-05-03 20:33 | 51.50458 | 0.05042 | 30 ft | 7 kts | 104° |
| 2026-05-03 20:34 | 51.50451 | 0.05122 | 30 ft | 6 kts | 93° |
| 2026-05-03 20:34 | 51.50448 | 0.05196 | 30 ft | 6 kts | 93° |
| 2026-05-03 20:34 | 51.50446 | 0.05288 | 30 ft | 10 kts | 92° |
| 2026-05-03 20:34 | 51.50443 | 0.05397 | 30 ft | 9 kts | 92° |
| 2026-05-03 20:35 | 51.50440 | 0.05493 | 30 ft | 8 kts | 93° |
| 2026-05-03 20:35 | 51.50437 | 0.05576 | 30 ft | 7 kts | 92° |
| 2026-05-03 20:35 | 51.50434 | 0.05655 | 30 ft | 7 kts | 94° |
| 2026-05-03 20:35 | 51.50432 | 0.05736 | 30 ft | 7 kts | 91° |
| 2026-05-03 20:36 | 51.50431 | 0.05822 | 30 ft | 10 kts | 96° |
| 2026-05-03 20:36 | 51.50425 | 0.05955 | 30 ft | 11 kts | 92° |
| 2026-05-03 20:36 | 51.50422 | 0.06074 | 30 ft | 9 kts | 93° |
| 2026-05-03 20:36 | 51.50419 | 0.06178 | 30 ft | 8 kts | 92° |
| 2026-05-03 20:37 | 51.50416 | 0.06267 | 30 ft | 7 kts | 93° |
| 2026-05-03 20:37 | 51.50413 | 0.06348 | 30 ft | 6 kts | 93° |
| 2026-05-03 20:37 | 51.50411 | 0.06419 | 30 ft | 6 kts | 92° |
| 2026-05-03 20:37 | 51.50409 | 0.06483 | 30 ft | 5 kts | 93° |
| 2026-05-03 20:38 | 51.50407 | 0.06543 | 30 ft | 5 kts | 92° |
| 2026-05-03 20:38 | 51.50418 | 0.06575 | 30 ft | 0 kts | 37° |
| 2026-05-03 20:39 | 51.50419 | 0.06576 | 30 ft | 0 kts | 36° |
| 2026-05-03 20:39 | 51.50463 | 0.06590 | 30 ft | 7 kts | 2° |
| 2026-05-03 20:39 | 51.50491 | 0.06546 | 30 ft | 0 kts | 273° |
| 2026-05-03 20:40 | 51.50492 | 0.06529 | 30 ft | 9 kts | 272° |
| 2026-05-03 20:40 | 51.50510 | 0.05995 | 30 ft | 94 kts | 272° |
| 2026-05-03 20:40 | 51.50558 | 0.04563 | 121 ft | 149 kts | 272° |
| 2026-05-03 20:41 | 51.50628 | 0.02880 | 727 ft | 160 kts | 272° |
| 2026-05-03 20:41 | 51.50703 | 0.01062 | 1493 ft | 166 kts | 272° |
| 2026-05-03 20:41 | 51.50831 | -0.00779 | 2254 ft | 173 kts | 284° |
| 2026-05-03 20:41 | 51.51626 | -0.02293 | 2666 ft | 195 kts | 335° |
| 2026-05-03 20:42 | 51.53028 | -0.02413 | 2899 ft | 212 kts | 11° |
| 2026-05-03 20:42 | 51.54443 | -0.01813 | 2966 ft | 209 kts | 14° |
| 2026-05-03 20:42 | 51.55866 | -0.01142 | 2848 ft | 218 kts | 20° |
| 2026-05-03 20:42 | 51.57035 | 0.00394 | 2740 ft | 222 kts | 60° |
| 2026-05-03 20:43 | 51.57541 | 0.02753 | 2879 ft | 226 kts | 75° |
| 2026-05-03 20:43 | 51.57948 | 0.05194 | 2959 ft | 226 kts | 74° |
| 2026-05-03 20:43 | 51.58360 | 0.07664 | 2992 ft | 228 kts | 74° |
| 2026-05-03 20:43 | 51.58773 | 0.10130 | 3001 ft | 229 kts | 74° |
| 2026-05-03 20:44 | 51.59190 | 0.12590 | 3000 ft | 228 kts | 74° |
| 2026-05-03 20:44 | 51.59608 | 0.15047 | 3008 ft | 226 kts | 73° |
| 2026-05-03 20:44 | 51.60023 | 0.17484 | 3005 ft | 225 kts | 73° |
| 2026-05-03 20:44 | 51.60311 | 0.19959 | 3023 ft | 238 kts | 84° |
| 2026-05-03 20:45 | 51.60377 | 0.22733 | 3029 ft | 256 kts | 88° |
| 2026-05-03 20:45 | 51.60426 | 0.25592 | 3010 ft | 253 kts | 87° |
| 2026-05-03 20:45 | 51.60476 | 0.28395 | 3010 ft | 250 kts | 87° |
| 2026-05-03 20:45 | 51.60526 | 0.31163 | 3006 ft | 248 kts | 87° |
| 2026-05-03 20:46 | 51.60577 | 0.33950 | 3006 ft | 246 kts | 87° |
| 2026-05-03 20:46 | 51.60627 | 0.36678 | 3006 ft | 244 kts | 87° |
| 2026-05-03 20:46 | 51.60638 | 0.39414 | 3003 ft | 243 kts | 93° |
| 2026-05-03 20:46 | 51.60410 | 0.42136 | 3019 ft | 254 kts | 98° |
| 2026-05-03 20:47 | 51.60114 | 0.44961 | 3294 ft | 253 kts | 98° |
| 2026-05-03 20:47 | 51.59822 | 0.47768 | 3430 ft | 256 kts | 98° |
| 2026-05-03 20:47 | 51.59530 | 0.50586 | 3648 ft | 256 kts | 98° |
| 2026-05-03 20:47 | 51.59241 | 0.53390 | 3852 ft | 257 kts | 99° |
| 2026-05-03 20:48 | 51.58741 | 0.56126 | 4022 ft | 258 kts | 120° |
| 2026-05-03 20:48 | 51.57422 | 0.57979 | 4196 ft | 256 kts | 157° |
| 2026-05-03 20:48 | 51.55686 | 0.58671 | 4397 ft | 263 kts | 171° |
| 2026-05-03 20:48 | 51.53915 | 0.59143 | 5204 ft | 257 kts | 171° |
| 2026-05-03 20:49 | 51.52130 | 0.59605 | 5892 ft | 258 kts | 172° |
| 2026-05-03 20:49 | 51.50372 | 0.60054 | 6578 ft | 259 kts | 172° |
| 2026-05-03 20:49 | 51.48585 | 0.60508 | 7228 ft | 261 kts | 172° |
| 2026-05-03 20:49 | 51.46800 | 0.60961 | 7879 ft | 263 kts | 172° |
| 2026-05-03 20:50 | 51.45005 | 0.61415 | 8477 ft | 265 kts | 172° |
| 2026-05-03 20:50 | 51.43170 | 0.61878 | 9119 ft | 267 kts | 172° |
| 2026-05-03 20:50 | 51.41350 | 0.62465 | 9724 ft | 272 kts | 162° |
| 2026-05-03 20:50 | 51.39819 | 0.64204 | 10327 ft | 278 kts | 134° |
| 2026-05-03 20:51 | 51.38581 | 0.66615 | 10924 ft | 281 kts | 131° |
| 2026-05-03 20:51 | 51.37355 | 0.69047 | 11562 ft | 284 kts | 131° |
| 2026-05-03 20:51 | 51.36110 | 0.71522 | 12196 ft | 286 kts | 131° |
| 2026-05-03 20:51 | 51.34837 | 0.74044 | 12413 ft | 302 kts | 132° |
| 2026-05-03 20:52 | 51.33499 | 0.76690 | 12863 ft | 306 kts | 132° |
| 2026-05-03 20:52 | 51.32171 | 0.79316 | 13321 ft | 309 kts | 132° |
| 2026-05-03 20:52 | 51.30806 | 0.82006 | 13842 ft | 311 kts | 132° |
| 2026-05-03 20:52 | 51.29446 | 0.84684 | 14346 ft | 313 kts | 132° |
| 2026-05-03 20:53 | 51.28074 | 0.87382 | 14825 ft | 316 kts | 133° |
| 2026-05-03 20:53 | 51.26691 | 0.90097 | 15317 ft | 318 kts | 133° |
| 2026-05-03 20:53 | 51.25281 | 0.92859 | 15794 ft | 321 kts | 133° |
| 2026-05-03 20:53 | 51.23888 | 0.95587 | 16269 ft | 323 kts | 133° |
| 2026-05-03 20:54 | 51.22461 | 0.98376 | 16752 ft | 325 kts | 133° |
| 2026-05-03 20:54 | 51.20306 | 1.04708 | 17643 ft | 338 kts | 105° |
| 2026-05-03 20:54 | 51.19825 | 1.08402 | 18043 ft | 342 kts | 104° |
| 2026-05-03 20:55 | 51.19348 | 1.12117 | 18510 ft | 343 kts | 104° |
| 2026-05-03 20:55 | 51.18869 | 1.15845 | 18908 ft | 346 kts | 105° |
| 2026-05-03 20:55 | 51.18381 | 1.19620 | 19365 ft | 348 kts | 105° |
| 2026-05-03 20:55 | 51.17887 | 1.23404 | 19769 ft | 351 kts | 105° |
| 2026-05-03 20:56 | 51.17393 | 1.27177 | 20207 ft | 353 kts | 105° |
| 2026-05-03 20:56 | 51.16890 | 1.30997 | 20596 ft | 355 kts | 105° |
| 2026-05-03 20:56 | 51.16381 | 1.34866 | 20982 ft | 358 kts | 105° |
| 2026-05-03 20:56 | 51.16064 | 1.38796 | 21399 ft | 363 kts | 98° |
| 2026-05-03 20:57 | 51.15876 | 1.42859 | 21780 ft | 366 kts | 97° |
| 2026-05-03 20:57 | 51.15693 | 1.46900 | 22172 ft | 368 kts | 97° |
| 2026-05-03 20:57 | 51.15507 | 1.50927 | 22573 ft | 369 kts | 98° |
| 2026-05-03 20:57 | 51.15315 | 1.55033 | 22870 ft | 369 kts | 98° |
| 2026-05-03 20:58 | 51.15126 | 1.59055 | 22911 ft | 366 kts | 98° |
| 2026-05-03 20:58 | 51.14936 | 1.63085 | 22916 ft | 364 kts | 98° |
| 2026-05-03 20:58 | 51.14744 | 1.67063 | 22914 ft | 362 kts | 99° |
| 2026-05-03 20:58 | 51.14549 | 1.71060 | 22918 ft | 360 kts | 99° |
| 2026-05-03 20:59 | 51.14354 | 1.75000 | 22920 ft | 358 kts | 99° |
| 2026-05-03 20:59 | 51.14156 | 1.78971 | 22918 ft | 357 kts | 99° |
| 2026-05-03 20:59 | 51.13959 | 1.82872 | 22920 ft | 356 kts | 99° |
| 2026-05-03 20:59 | 51.13757 | 1.86826 | 22926 ft | 356 kts | 99° |
| 2026-05-03 21:00 | 51.13557 | 1.90723 | 22918 ft | 356 kts | 99° |
| 2026-05-03 21:00 | 51.13421 | 1.93342 | 22923 ft | 355 kts | 99° |
| 2026-05-03 21:00 | 51.13147 | 1.98591 | 22923 ft | 355 kts | 99° |
| 2026-05-03 21:00 | 51.12943 | 2.02475 | 22925 ft | 355 kts | 99° |
| 2026-05-03 21:01 | 51.12736 | 2.06392 | 22918 ft | 355 kts | 99° |
| 2026-05-03 21:01 | 51.12529 | 2.10292 | 22922 ft | 355 kts | 99° |
| 2026-05-03 21:01 | 51.12320 | 2.14204 | 22924 ft | 355 kts | 99° |
| 2026-05-03 21:01 | 51.12107 | 2.18140 | 22924 ft | 355 kts | 99° |
| 2026-05-03 21:02 | 51.11896 | 2.22044 | 22918 ft | 355 kts | 99° |
| 2026-05-03 21:02 | 51.11682 | 2.25951 | 22918 ft | 355 kts | 99° |
| 2026-05-03 21:02 | 51.11470 | 2.29828 | 22918 ft | 355 kts | 99° |
| 2026-05-03 21:02 | 51.11253 | 2.33757 | 22917 ft | 355 kts | 99° |
| 2026-05-03 21:03 | 51.11035 | 2.37672 | 22923 ft | 355 kts | 99° |
| 2026-05-03 21:03 | 51.10818 | 2.41548 | 22922 ft | 355 kts | 99° |
| 2026-05-03 21:03 | 51.10598 | 2.45468 | 22915 ft | 356 kts | 99° |
| 2026-05-03 21:03 | 51.10377 | 2.49361 | 22915 ft | 356 kts | 99° |
| 2026-05-03 21:04 | 51.10152 | 2.53330 | 22926 ft | 356 kts | 99° |
| 2026-05-03 21:04 | 51.09930 | 2.57197 | 22929 ft | 356 kts | 99° |
| 2026-05-03 21:04 | 51.09702 | 2.61153 | 22913 ft | 357 kts | 99° |
| 2026-05-03 21:04 | 51.09441 | 2.65062 | 22917 ft | 354 kts | 104° |
| 2026-05-03 21:05 | 51.08873 | 2.68785 | 22934 ft | 349 kts | 112° |
| 2026-05-03 21:05 | 51.08193 | 2.72503 | 22917 ft | 348 kts | 112° |
| 2026-05-03 21:05 | 51.07519 | 2.76173 | 22935 ft | 349 kts | 112° |
| 2026-05-03 21:05 | 51.06836 | 2.79888 | 22922 ft | 351 kts | 112° |
| 2026-05-03 21:06 | 51.06153 | 2.83603 | 22928 ft | 353 kts | 112° |
| 2026-05-03 21:06 | 51.05464 | 2.87363 | 22922 ft | 354 kts | 112° |
| 2026-05-03 21:06 | 51.04772 | 2.91137 | 22922 ft | 355 kts | 112° |
| 2026-05-03 21:06 | 51.04085 | 2.94884 | 22917 ft | 355 kts | 112° |
| 2026-05-03 21:07 | 51.03391 | 2.98664 | 22917 ft | 356 kts | 111° |
| 2026-05-03 21:07 | 51.02705 | 3.02395 | 22919 ft | 356 kts | 111° |
| 2026-05-03 21:07 | 51.02004 | 3.06204 | 22920 ft | 356 kts | 111° |
| 2026-05-03 21:07 | 51.01317 | 3.09933 | 22911 ft | 357 kts | 111° |
| 2026-05-03 21:08 | 51.00613 | 3.13744 | 22923 ft | 357 kts | 111° |
| 2026-05-03 21:08 | 50.99916 | 3.17511 | 22923 ft | 357 kts | 111° |
| 2026-05-03 21:08 | 50.99221 | 3.21262 | 22927 ft | 357 kts | 111° |
| 2026-05-03 21:08 | 50.98514 | 3.25069 | 22929 ft | 357 kts | 111° |
| 2026-05-03 21:09 | 50.97810 | 3.28848 | 22925 ft | 357 kts | 111° |
| 2026-05-03 21:09 | 50.97107 | 3.32623 | 22924 ft | 357 kts | 111° |
| 2026-05-03 21:09 | 50.96405 | 3.36384 | 22920 ft | 357 kts | 111° |
| 2026-05-03 21:09 | 50.95712 | 3.40125 | 22927 ft | 357 kts | 111° |
| 2026-05-03 21:10 | 50.95007 | 3.43927 | 22920 ft | 356 kts | 111° |
| 2026-05-03 21:10 | 50.94314 | 3.47649 | 22924 ft | 356 kts | 111° |
| 2026-05-03 21:10 | 50.93613 | 3.51397 | 22930 ft | 356 kts | 111° |
| 2026-05-03 21:10 | 50.92912 | 3.55128 | 22926 ft | 356 kts | 111° |
| 2026-05-03 21:11 | 50.92199 | 3.58911 | 22923 ft | 356 kts | 111° |
| 2026-05-03 21:11 | 50.91492 | 3.62658 | 22923 ft | 356 kts | 111° |
| 2026-05-03 21:11 | 50.90775 | 3.66430 | 22920 ft | 356 kts | 112° |
| 2026-05-03 21:11 | 50.90056 | 3.70176 | 22923 ft | 355 kts | 112° |
| 2026-05-03 21:12 | 50.89344 | 3.73874 | 22928 ft | 355 kts | 112° |
| 2026-05-03 21:12 | 50.88614 | 3.77655 | 22922 ft | 354 kts | 112° |
| 2026-05-03 21:12 | 50.87895 | 3.81378 | 22925 ft | 354 kts | 112° |
| 2026-05-03 21:12 | 50.87178 | 3.85075 | 22926 ft | 355 kts | 112° |
| 2026-05-03 21:13 | 50.86447 | 3.88836 | 22926 ft | 355 kts | 112° |
| 2026-05-03 21:13 | 50.85721 | 3.92572 | 22929 ft | 355 kts | 112° |
| 2026-05-03 21:13 | 50.84997 | 3.96277 | 22932 ft | 355 kts | 112° |
| 2026-05-03 21:13 | 50.84249 | 4.00043 | 22930 ft | 356 kts | 112° |
| 2026-05-03 21:14 | 50.83512 | 4.03768 | 22929 ft | 356 kts | 112° |
| 2026-05-03 21:14 | 50.82780 | 4.07469 | 22936 ft | 356 kts | 112° |
| 2026-05-03 21:14 | 50.82037 | 4.11226 | 22927 ft | 355 kts | 112° |
| 2026-05-03 21:14 | 50.81300 | 4.14952 | 22926 ft | 356 kts | 112° |
| 2026-05-03 21:15 | 50.80568 | 4.18650 | 22934 ft | 356 kts | 112° |
| 2026-05-03 21:15 | 50.79819 | 4.22432 | 22944 ft | 356 kts | 112° |
| 2026-05-03 21:15 | 50.79088 | 4.26116 | 22940 ft | 357 kts | 112° |
| 2026-05-03 21:15 | 50.78343 | 4.29868 | 22936 ft | 357 kts | 112° |
| 2026-05-03 21:16 | 50.77601 | 4.33597 | 22935 ft | 358 kts | 112° |
| 2026-05-03 21:16 | 50.76855 | 4.37347 | 22941 ft | 358 kts | 112° |
| 2026-05-03 21:16 | 50.76106 | 4.41094 | 22941 ft | 359 kts | 112° |
| 2026-05-03 21:16 | 50.75348 | 4.44887 | 22938 ft | 359 kts | 112° |
| 2026-05-03 21:17 | 50.74603 | 4.48612 | 22932 ft | 359 kts | 112° |
| 2026-05-03 21:17 | 50.74104 | 4.51096 | 22938 ft | 359 kts | 112° |
| 2026-05-03 21:17 | 50.73099 | 4.56102 | 22943 ft | 359 kts | 112° |
| 2026-05-03 21:17 | 50.72340 | 4.59872 | 22937 ft | 359 kts | 112° |
| 2026-05-03 21:18 | 50.71596 | 4.63631 | 22944 ft | 359 kts | 111° |
| 2026-05-03 21:18 | 50.70879 | 4.67356 | 22947 ft | 358 kts | 112° |
| 2026-05-03 21:18 | 50.70155 | 4.71110 | 22950 ft | 358 kts | 112° |
| 2026-05-03 21:18 | 50.69426 | 4.74877 | 22947 ft | 358 kts | 112° |
| 2026-05-03 21:19 | 50.68698 | 4.78629 | 22957 ft | 358 kts | 112° |
| 2026-05-03 21:19 | 50.67964 | 4.82403 | 22950 ft | 359 kts | 112° |
| 2026-05-03 21:19 | 50.67229 | 4.86171 | 22942 ft | 359 kts | 112° |
| 2026-05-03 21:19 | 50.66458 | 4.89901 | 22945 ft | 356 kts | 117° |
| 2026-05-03 21:20 | 50.65122 | 4.93071 | 22978 ft | 341 kts | 139° |
| 2026-05-03 21:20 | 50.63457 | 4.95708 | 22951 ft | 341 kts | 141° |
| 2026-05-03 21:20 | 50.61770 | 4.98327 | 22948 ft | 342 kts | 141° |
| 2026-05-03 21:20 | 50.60084 | 5.00932 | 22947 ft | 342 kts | 141° |
| 2026-05-03 21:21 | 50.58371 | 5.03578 | 22953 ft | 342 kts | 141° |
| 2026-05-03 21:21 | 50.56671 | 5.06203 | 22688 ft | 342 kts | 141° |
| 2026-05-03 21:21 | 50.54991 | 5.08807 | 22374 ft | 338 kts | 141° |
| 2026-05-03 21:21 | 50.53325 | 5.11385 | 22043 ft | 335 kts | 141° |
| 2026-05-03 21:22 | 50.51667 | 5.13944 | 21701 ft | 333 kts | 141° |
| 2026-05-03 21:22 | 50.50044 | 5.16447 | 21358 ft | 331 kts | 141° |
| 2026-05-03 21:22 | 50.48404 | 5.18971 | 21022 ft | 329 kts | 141° |
| 2026-05-03 21:22 | 50.46779 | 5.21470 | 20686 ft | 327 kts | 141° |
| 2026-05-03 21:23 | 50.45159 | 5.23959 | 20359 ft | 326 kts | 141° |
| 2026-05-03 21:23 | 50.43525 | 5.26466 | 20011 ft | 325 kts | 140° |
| 2026-05-03 21:23 | 50.41929 | 5.28914 | 19681 ft | 324 kts | 140° |
| 2026-05-03 21:23 | 50.40304 | 5.31402 | 19348 ft | 323 kts | 140° |
| 2026-05-03 21:24 | 50.38704 | 5.33849 | 19013 ft | 322 kts | 140° |
| 2026-05-03 21:24 | 50.37110 | 5.36286 | 18682 ft | 321 kts | 140° |
| 2026-05-03 21:24 | 50.35510 | 5.38728 | 18356 ft | 320 kts | 140° |
| 2026-05-03 21:24 | 50.33933 | 5.41134 | 18028 ft | 319 kts | 140° |
| 2026-05-03 21:25 | 50.32340 | 5.43562 | 17695 ft | 318 kts | 139° |
| 2026-05-03 21:25 | 50.30759 | 5.45969 | 17364 ft | 317 kts | 139° |
| 2026-05-03 21:25 | 50.29187 | 5.48357 | 17043 ft | 320 kts | 139° |
| 2026-05-03 21:25 | 50.27564 | 5.50816 | 16707 ft | 325 kts | 139° |
| 2026-05-03 21:26 | 50.25927 | 5.53297 | 16368 ft | 329 kts | 139° |
| 2026-05-03 21:26 | 50.24288 | 5.55780 | 16030 ft | 331 kts | 139° |
| 2026-05-03 21:26 | 50.22626 | 5.58296 | 15687 ft | 334 kts | 139° |
| 2026-05-03 21:26 | 50.20956 | 5.60823 | 15338 ft | 335 kts | 139° |
| 2026-05-03 21:27 | 50.19299 | 5.63328 | 14971 ft | 337 kts | 139° |
| 2026-05-03 21:27 | 50.17619 | 5.65866 | 14620 ft | 336 kts | 139° |
| 2026-05-03 21:27 | 50.15933 | 5.68411 | 14268 ft | 335 kts | 139° |
| 2026-05-03 21:27 | 50.14265 | 5.70925 | 13926 ft | 333 kts | 139° |
| 2026-05-03 21:28 | 50.12606 | 5.73430 | 13576 ft | 324 kts | 139° |
| 2026-05-03 21:28 | 50.11021 | 5.75822 | 13247 ft | 316 kts | 139° |
| 2026-05-03 21:28 | 50.09446 | 5.78194 | 12925 ft | 310 kts | 139° |
| 2026-05-03 21:28 | 50.07925 | 5.80481 | 12607 ft | 304 kts | 139° |
| 2026-05-03 21:29 | 50.06415 | 5.82747 | 12302 ft | 299 kts | 139° |
| 2026-05-03 21:29 | 50.04927 | 5.84979 | 11996 ft | 295 kts | 140° |
| 2026-05-03 21:29 | 50.03314 | 5.86862 | 11684 ft | 286 kts | 156° |
| 2026-05-03 21:29 | 50.01471 | 5.87949 | 11415 ft | 279 kts | 166° |
| 2026-05-03 21:30 | 49.99632 | 5.88760 | 11159 ft | 274 kts | 168° |
| 2026-05-03 21:30 | 49.97812 | 5.89602 | 10915 ft | 273 kts | 160° |
| 2026-05-03 21:30 | 49.96278 | 5.91338 | 10701 ft | 275 kts | 140° |
| 2026-05-03 21:30 | 49.94967 | 5.93491 | 10430 ft | 275 kts | 135° |
| 2026-05-03 21:31 | 49.93727 | 5.95791 | 10148 ft | 276 kts | 132° |
| 2026-05-03 21:31 | 49.92573 | 5.98127 | 9869 ft | 276 kts | 130° |
| 2026-05-03 21:31 | 49.91451 | 6.00546 | 9587 ft | 276 kts | 128° |
| 2026-05-03 21:31 | 49.90352 | 6.03030 | 9297 ft | 277 kts | 127° |
| 2026-05-03 21:32 | 49.89344 | 6.05387 | 9027 ft | 274 kts | 127° |
| 2026-05-03 21:32 | 49.88330 | 6.07819 | 8747 ft | 272 kts | 126° |
| 2026-05-03 21:32 | 49.87310 | 6.10312 | 8468 ft | 272 kts | 126° |
| 2026-05-03 21:32 | 49.86306 | 6.12797 | 8189 ft | 271 kts | 125° |
| 2026-05-03 21:33 | 49.85321 | 6.15260 | 7910 ft | 270 kts | 125° |
| 2026-05-03 21:33 | 49.84346 | 6.17720 | 7632 ft | 265 kts | 125° |
| 2026-05-03 21:33 | 49.83416 | 6.20098 | 7358 ft | 252 kts | 125° |
| 2026-05-03 21:33 | 49.82530 | 6.22366 | 7102 ft | 240 kts | 125° |
| 2026-05-03 21:34 | 49.81691 | 6.24541 | 6860 ft | 227 kts | 126° |
| 2026-05-03 21:34 | 49.80905 | 6.26595 | 6626 ft | 214 kts | 126° |
| 2026-05-03 21:34 | 49.80135 | 6.28580 | 6435 ft | 223 kts | 127° |
| 2026-05-03 21:34 | 49.79317 | 6.30661 | 6203 ft | 228 kts | 126° |
| 2026-05-03 21:35 | 49.78496 | 6.32773 | 5963 ft | 232 kts | 126° |
| 2026-05-03 21:35 | 49.77653 | 6.34944 | 5721 ft | 236 kts | 126° |
| 2026-05-03 21:35 | 49.76800 | 6.37141 | 5472 ft | 240 kts | 125° |
| 2026-05-03 21:35 | 49.75936 | 6.39365 | 5221 ft | 243 kts | 125° |
| 2026-05-03 21:36 | 49.75068 | 6.41601 | 4969 ft | 244 kts | 125° |
| 2026-05-03 21:36 | 49.74098 | 6.43636 | 4708 ft | 227 kts | 145° |
| 2026-05-03 21:36 | 49.72728 | 6.44372 | 4492 ft | 197 kts | 188° |
| 2026-05-03 21:36 | 49.71495 | 6.43795 | 4326 ft | 178 kts | 209° |
| 2026-05-03 21:37 | 49.70687 | 6.42505 | 3991 ft | 161 kts | 242° |
| 2026-05-03 21:37 | 49.70164 | 6.41090 | 3792 ft | 152 kts | 234° |
| 2026-05-03 21:37 | 49.69550 | 6.39708 | 3622 ft | 159 kts | 237° |
| 2026-05-03 21:37 | 49.68988 | 6.38207 | 3421 ft | 167 kts | 239° |
| 2026-05-03 21:38 | 49.68386 | 6.36617 | 3214 ft | 171 kts | 239° |
| 2026-05-03 21:38 | 49.67788 | 6.35023 | 3032 ft | 175 kts | 239° |
| 2026-05-03 21:38 | 49.67192 | 6.33422 | 2710 ft | 165 kts | 238° |
| 2026-05-03 21:38 | 49.66651 | 6.31976 | 2452 ft | 150 kts | 238° |
| 2026-05-03 21:39 | 49.66157 | 6.30640 | 2240 ft | 134 kts | 238° |
| 2026-05-03 21:39 | 49.65710 | 6.29425 | 2088 ft | 130 kts | 239° |
| 2026-05-03 21:39 | 49.65258 | 6.28189 | 1929 ft | 134 kts | 238° |
| 2026-05-03 21:39 | 49.64785 | 6.26919 | 1759 ft | 140 kts | 238° |
| 2026-05-03 21:40 | 49.64286 | 6.25574 | 1565 ft | 144 kts | 237° |
| 2026-05-03 21:40 | 49.63799 | 6.24282 | 1367 ft | 138 kts | 238° |
| 2026-05-03 21:40 | 49.63331 | 6.23007 | 1229 ft | 133 kts | 239° |
| 2026-05-03 21:40 | 49.62964 | 6.22020 | 1226 ft | 69 kts | 239° |
| 2026-05-03 21:41 | 49.62783 | 6.21531 | 1233 ft | 43 kts | 241° |
| 2026-05-03 21:41 | 49.62669 | 6.21175 | 1238 ft | 31 kts | 254° |
| 2026-05-03 21:41 | 49.62647 | 6.20894 | 1239 ft | 19 kts | 269° |
| 2026-05-03 21:41 | 49.62694 | 6.20741 | 1239 ft | 15 kts | 340° |
| 2026-05-03 21:42 | 49.62785 | 6.20765 | 1240 ft | 13 kts | 24° |
| 2026-05-03 21:42 | 49.62849 | 6.20910 | 1240 ft | 16 kts | 65° |
| 2026-05-03 21:42 | 49.62896 | 6.21060 | 1239 ft | 14 kts | 64° |
| 2026-05-03 21:42 | 49.62937 | 6.21197 | 1238 ft | 13 kts | 64° |
| 2026-05-03 21:43 | 49.62976 | 6.21323 | 1237 ft | 12 kts | 63° |
| 2026-05-03 21:43 | 49.63046 | 6.21328 | 1236 ft | 11 kts | 328° |
| 2026-05-03 21:43 | 49.63112 | 6.21309 | 1237 ft | 9 kts | 12° |
| 2026-05-03 21:43 | 49.63169 | 6.21285 | 1237 ft | 8 kts | 331° |
| 2026-05-03 21:44 | 49.63199 | 6.21316 | 1237 ft | 6 kts | 60° |
| 2026-05-03 21:44 | 49.63207 | 6.21338 | 1237 ft | 0 kts | 60° |